N23SM PAGY-PAYA

Flight info

Callsign N23SM
Flight time 1h 36m
Altitude 7000
Route EEF/N0175F060 CSPER
Aircraft C208/L-SDFGR/C

Departure

Time 2026-04-20 11:03
Airport Skagway Airport (PAGY)

Arrival

Time 2026-04-20 12:40
Airport Yakutat Airport (PAYA)
Time Latitude Longitude Altitude Speed Heading
2026-04-20 11:00 59.46294 -135.30949 62 ft 0 kts 47°
2026-04-20 11:01 59.46295 -135.30947 62 ft 1 kts 42°
2026-04-20 11:01 59.46316 -135.30972 59 ft 4 kts 344°
2026-04-20 11:01 59.46347 -135.30988 59 ft 6 kts 310°
2026-04-20 11:01 59.46361 -135.31021 62 ft 0 kts 310°
2026-04-20 11:02 59.46365 -135.31032 62 ft 4 kts 290°
2026-04-20 11:02 59.46365 -135.31043 62 ft 0 kts 255°
2026-04-20 11:02 59.46361 -135.31056 58 ft 0 kts 225°
2026-04-20 11:02 59.46317 -135.31140 57 ft 38 kts 225°
2026-04-20 11:03 59.45991 -135.31789 112 ft 85 kts 221°
2026-04-20 11:03 59.45522 -135.32667 344 ft 99 kts 216°
2026-04-20 11:03 59.44887 -135.33467 607 ft 113 kts 204°
2026-04-20 11:03 59.44123 -135.33881 990 ft 117 kts 197°
2026-04-20 11:04 59.43311 -135.34286 1290 ft 123 kts 192°
2026-04-20 11:04 59.42481 -135.34470 1717 ft 117 kts 180°
2026-04-20 11:04 59.41670 -135.34462 2039 ft 118 kts 182°
2026-04-20 11:04 59.40845 -135.34455 2343 ft 121 kts 185°
2026-04-20 11:05 59.39982 -135.34661 2578 ft 127 kts 191°
2026-04-20 11:05 59.39104 -135.35024 2844 ft 131 kts 191°
2026-04-20 11:05 59.38214 -135.35376 3113 ft 134 kts 192°
2026-04-20 11:05 59.37316 -135.35750 3374 ft 136 kts 192°
2026-04-20 11:06 59.36381 -135.36147 3619 ft 138 kts 192°
2026-04-20 11:06 59.35438 -135.36548 3866 ft 139 kts 192°
2026-04-20 11:06 59.34489 -135.36946 4113 ft 140 kts 192°
2026-04-20 11:06 59.33535 -135.37337 4378 ft 140 kts 192°
2026-04-20 11:07 59.32582 -135.37721 4612 ft 140 kts 192°
2026-04-20 11:07 59.31629 -135.38127 4852 ft 140 kts 194°
2026-04-20 11:07 59.30690 -135.38648 5084 ft 140 kts 198°
2026-04-20 11:07 59.29769 -135.39288 5320 ft 140 kts 202°
2026-04-20 11:08 59.28874 -135.40040 5558 ft 140 kts 206°
2026-04-20 11:08 59.27988 -135.40840 5791 ft 141 kts 197°
2026-04-20 11:08 59.27007 -135.40765 6018 ft 143 kts 172°
2026-04-20 11:08 59.26048 -135.40239 6258 ft 144 kts 162°
2026-04-20 11:09 59.25115 -135.39502 6491 ft 145 kts 161°
2026-04-20 11:09 59.24193 -135.38761 6710 ft 146 kts 161°
2026-04-20 11:09 59.23255 -135.37989 6932 ft 147 kts 161°
2026-04-20 11:09 59.22271 -135.37173 6950 ft 159 kts 161°
2026-04-20 11:10 59.21231 -135.36316 6959 ft 165 kts 161°
2026-04-20 11:10 59.20160 -135.35435 6963 ft 168 kts 161°
2026-04-20 11:10 59.19085 -135.34552 6963 ft 170 kts 161°
2026-04-20 11:10 59.17952 -135.33920 6963 ft 167 kts 179°
2026-04-20 11:11 59.16795 -135.33837 6961 ft 165 kts 187°
2026-04-20 11:11 59.15736 -135.34565 6963 ft 162 kts 209°
2026-04-20 11:11 59.14727 -135.35553 6961 ft 163 kts 209°
2026-04-20 11:11 59.13714 -135.36534 6962 ft 163 kts 209°
2026-04-20 11:12 59.12697 -135.37521 6962 ft 163 kts 209°
2026-04-20 11:12 59.11681 -135.38509 6946 ft 163 kts 209°
2026-04-20 11:12 59.10671 -135.39495 6947 ft 162 kts 209°
2026-04-20 11:12 59.09665 -135.40480 6948 ft 161 kts 209°
2026-04-20 11:13 59.08662 -135.41465 6949 ft 162 kts 208°
2026-04-20 11:13 59.07556 -135.41878 6945 ft 165 kts 184°
2026-04-20 11:13 59.06409 -135.41848 6951 ft 165 kts 183°
2026-04-20 11:13 59.05270 -135.41655 6955 ft 170 kts 171°
2026-04-20 11:14 59.04124 -135.41048 6957 ft 170 kts 168°
2026-04-20 11:14 59.02990 -135.40435 6966 ft 169 kts 168°
2026-04-20 11:14 59.01859 -135.39813 6967 ft 169 kts 168°
2026-04-20 11:14 59.00725 -135.39183 6966 ft 170 kts 168°
2026-04-20 11:15 58.99586 -135.38558 6964 ft 170 kts 168°
2026-04-20 11:15 58.98447 -135.37936 6964 ft 170 kts 168°
2026-04-20 11:15 58.97307 -135.37309 6965 ft 170 kts 168°
2026-04-20 11:15 58.96166 -135.36675 6963 ft 170 kts 168°
2026-04-20 11:16 58.95024 -135.36048 6966 ft 171 kts 168°
2026-04-20 11:16 58.93881 -135.35427 6964 ft 171 kts 168°
2026-04-20 11:16 58.92784 -135.34515 6963 ft 173 kts 155°
2026-04-20 11:16 58.91699 -135.33527 6967 ft 171 kts 166°
2026-04-20 11:17 58.90539 -135.33179 6968 ft 168 kts 180°
2026-04-20 11:17 58.89370 -135.33084 6972 ft 168 kts 181°
2026-04-20 11:17 58.88214 -135.32980 6971 ft 168 kts 181°
2026-04-20 11:17 58.87047 -135.32863 6971 ft 167 kts 180°
2026-04-20 11:18 58.85888 -135.32746 6975 ft 166 kts 181°
2026-04-20 11:18 58.84728 -135.32627 6975 ft 167 kts 181°
2026-04-20 11:18 58.83563 -135.32511 6971 ft 168 kts 181°
2026-04-20 11:18 58.82399 -135.32388 6975 ft 167 kts 181°
2026-04-20 11:19 58.81229 -135.32271 6977 ft 168 kts 181°
2026-04-20 11:19 58.80055 -135.32154 6977 ft 169 kts 181°
2026-04-20 11:19 58.78880 -135.32032 6976 ft 169 kts 181°
2026-04-20 11:19 58.77704 -135.31912 6974 ft 169 kts 181°
2026-04-20 11:20 58.76533 -135.31793 6972 ft 168 kts 181°
2026-04-20 11:20 58.75364 -135.31674 6974 ft 168 kts 180°
2026-04-20 11:20 58.74206 -135.31556 6983 ft 166 kts 180°
2026-04-20 11:20 58.73053 -135.31439 6982 ft 166 kts 181°
2026-04-20 11:21 58.71894 -135.31323 6988 ft 167 kts 180°
2026-04-20 11:21 58.70743 -135.31208 6987 ft 168 kts 180°
2026-04-20 11:21 58.69576 -135.31088 6980 ft 168 kts 180°
2026-04-20 11:21 58.68412 -135.30969 6986 ft 168 kts 180°
2026-04-20 11:22 58.67246 -135.30852 6984 ft 168 kts 180°
2026-04-20 11:22 58.66085 -135.30733 6986 ft 166 kts 180°
2026-04-20 11:22 58.64936 -135.30617 6982 ft 165 kts 180°
2026-04-20 11:22 58.63786 -135.30504 6983 ft 167 kts 181°
2026-04-20 11:23 58.62625 -135.30387 6983 ft 167 kts 181°
2026-04-20 11:23 58.61460 -135.30268 6984 ft 168 kts 181°
2026-04-20 11:23 58.60289 -135.30151 6981 ft 169 kts 181°
2026-04-20 11:23 58.59121 -135.30031 6987 ft 168 kts 181°
2026-04-20 11:24 58.57948 -135.29917 6989 ft 170 kts 181°
2026-04-20 11:24 58.56761 -135.29801 6991 ft 171 kts 181°
2026-04-20 11:24 58.55576 -135.29675 6991 ft 170 kts 181°
2026-04-20 11:24 58.54400 -135.29555 6995 ft 169 kts 181°
2026-04-20 11:25 58.53227 -135.29440 6992 ft 168 kts 181°
2026-04-20 11:25 58.52054 -135.29325 6997 ft 170 kts 181°
2026-04-20 11:25 58.50871 -135.29210 6987 ft 171 kts 181°
2026-04-20 11:25 58.49696 -135.29085 6993 ft 166 kts 180°
2026-04-20 11:26 58.48544 -135.28968 6999 ft 167 kts 181°
2026-04-20 11:26 58.47382 -135.28858 6986 ft 167 kts 181°
2026-04-20 11:26 58.46227 -135.28739 6996 ft 166 kts 181°
2026-04-20 11:26 58.45074 -135.28628 6996 ft 166 kts 181°
2026-04-20 11:27 58.43917 -135.28513 6996 ft 167 kts 181°
2026-04-20 11:27 58.42757 -135.28393 7003 ft 167 kts 181°
2026-04-20 11:27 58.41583 -135.28283 7008 ft 171 kts 181°
2026-04-20 11:27 58.40389 -135.28166 7006 ft 173 kts 181°
2026-04-20 11:28 58.39187 -135.28041 7005 ft 173 kts 181°
2026-04-20 11:28 58.38003 -135.27921 7007 ft 172 kts 181°
2026-04-20 11:28 58.36807 -135.27799 7002 ft 172 kts 182°
2026-04-20 11:28 58.35609 -135.27685 6999 ft 173 kts 182°
2026-04-20 11:29 58.34408 -135.27566 6998 ft 173 kts 182°
2026-04-20 11:29 58.33215 -135.27444 6993 ft 171 kts 182°
2026-04-20 11:29 58.32035 -135.27324 6997 ft 168 kts 181°
2026-04-20 11:29 58.30868 -135.27210 6999 ft 167 kts 182°
2026-04-20 11:30 58.29705 -135.27098 6997 ft 166 kts 182°
2026-04-20 11:30 58.28548 -135.26988 7005 ft 168 kts 182°
2026-04-20 11:30 58.27368 -135.26880 7003 ft 171 kts 182°
2026-04-20 11:30 58.26178 -135.26755 7009 ft 172 kts 181°
2026-04-20 11:31 58.24987 -135.26632 7005 ft 171 kts 182°
2026-04-20 11:31 58.23799 -135.26516 7007 ft 171 kts 182°
2026-04-20 11:31 58.22607 -135.26400 7005 ft 171 kts 182°
2026-04-20 11:31 58.21417 -135.26281 7000 ft 171 kts 182°
2026-04-20 11:32 58.20221 -135.26165 7000 ft 172 kts 182°
2026-04-20 11:32 58.19059 -135.26371 7001 ft 166 kts 205°
2026-04-20 11:32 58.18092 -135.27478 7002 ft 160 kts 227°
2026-04-20 11:32 58.17465 -135.29175 7003 ft 157 kts 249°
2026-04-20 11:33 58.17250 -135.31143 7005 ft 155 kts 270°
2026-04-20 11:33 58.17307 -135.33185 7007 ft 155 kts 273°
2026-04-20 11:33 58.17350 -135.35229 7008 ft 155 kts 272°
2026-04-20 11:33 58.17394 -135.37272 7007 ft 155 kts 272°
2026-04-20 11:34 58.17440 -135.39316 7006 ft 155 kts 273°
2026-04-20 11:34 58.17485 -135.41358 7005 ft 156 kts 272°
2026-04-20 11:34 58.17530 -135.43406 7004 ft 156 kts 272°
2026-04-20 11:34 58.17575 -135.45452 7003 ft 155 kts 273°
2026-04-20 11:35 58.17619 -135.47496 7002 ft 155 kts 272°
2026-04-20 11:35 58.17664 -135.49539 7001 ft 155 kts 272°
2026-04-20 11:35 58.17707 -135.51585 7000 ft 155 kts 272°
2026-04-20 11:35 58.17750 -135.53631 7001 ft 155 kts 272°
2026-04-20 11:36 58.17793 -135.55676 6998 ft 155 kts 273°
2026-04-20 11:36 58.17836 -135.57718 6998 ft 155 kts 272°
2026-04-20 11:36 58.17878 -135.59759 6998 ft 155 kts 272°
2026-04-20 11:36 58.17921 -135.61800 7004 ft 155 kts 272°
2026-04-20 11:37 58.17962 -135.63849 7005 ft 156 kts 272°
2026-04-20 11:37 58.18045 -135.67943 7000 ft 154 kts 272°
2026-04-20 11:37 58.18085 -135.69984 7012 ft 155 kts 272°
2026-04-20 11:38 58.18126 -135.72038 7015 ft 156 kts 272°
2026-04-20 11:38 58.18164 -135.74091 7011 ft 155 kts 272°
2026-04-20 11:38 58.18204 -135.76135 7013 ft 157 kts 272°
2026-04-20 11:38 58.18241 -135.78212 7016 ft 159 kts 272°
2026-04-20 11:39 58.18284 -135.80284 7005 ft 158 kts 272°
2026-04-20 11:39 58.18321 -135.82343 6997 ft 155 kts 271°
2026-04-20 11:39 58.18360 -135.84376 7004 ft 156 kts 272°
2026-04-20 11:39 58.18399 -135.86434 7000 ft 156 kts 272°
2026-04-20 11:40 58.18437 -135.88489 7003 ft 156 kts 272°
2026-04-20 11:40 58.18473 -135.90550 7001 ft 156 kts 272°
2026-04-20 11:40 58.18511 -135.92603 7002 ft 156 kts 272°
2026-04-20 11:40 58.18547 -135.94660 6998 ft 156 kts 272°
2026-04-20 11:41 58.18584 -135.96723 6998 ft 156 kts 272°
2026-04-20 11:41 58.18620 -135.98777 6999 ft 156 kts 272°
2026-04-20 11:41 58.18657 -136.00829 6997 ft 156 kts 272°
2026-04-20 11:41 58.18692 -136.02876 7003 ft 155 kts 272°
2026-04-20 11:42 58.18727 -136.04920 6999 ft 155 kts 271°
2026-04-20 11:42 58.18760 -136.06963 7001 ft 154 kts 273°
2026-04-20 11:42 58.18795 -136.08983 6999 ft 153 kts 274°
2026-04-20 11:42 58.18829 -136.10994 7006 ft 154 kts 273°
2026-04-20 11:43 58.18862 -136.13016 7004 ft 152 kts 273°
2026-04-20 11:43 58.18894 -136.15027 7005 ft 153 kts 272°
2026-04-20 11:43 58.18927 -136.17043 7008 ft 153 kts 273°
2026-04-20 11:43 58.18961 -136.19046 7006 ft 154 kts 273°
2026-04-20 11:44 58.18993 -136.21071 7001 ft 153 kts 273°
2026-04-20 11:44 58.19024 -136.23090 7000 ft 153 kts 273°
2026-04-20 11:44 58.19056 -136.25104 7007 ft 153 kts 273°
2026-04-20 11:44 58.19086 -136.27113 7005 ft 152 kts 273°
2026-04-20 11:45 58.19118 -136.29122 7002 ft 152 kts 273°
2026-04-20 11:45 58.19147 -136.31115 7007 ft 151 kts 273°
2026-04-20 11:45 58.19177 -136.33112 7012 ft 153 kts 273°
2026-04-20 11:45 58.19210 -136.35138 7011 ft 154 kts 272°
2026-04-20 11:46 58.19235 -136.37163 7009 ft 153 kts 273°
2026-04-20 11:46 58.19264 -136.39177 7008 ft 153 kts 273°
2026-04-20 11:46 58.19293 -136.41184 7007 ft 152 kts 273°
2026-04-20 11:46 58.19323 -136.43192 7006 ft 152 kts 273°
2026-04-20 11:47 58.19351 -136.45200 7005 ft 152 kts 272°
2026-04-20 11:47 58.19379 -136.47205 7005 ft 152 kts 272°
2026-04-20 11:47 58.19406 -136.49210 7004 ft 152 kts 272°
2026-04-20 11:47 58.19433 -136.51213 7003 ft 152 kts 272°
2026-04-20 11:48 58.19460 -136.53216 7005 ft 152 kts 273°
2026-04-20 11:48 58.19486 -136.55219 7005 ft 152 kts 274°
2026-04-20 11:48 58.19503 -136.56544 7005 ft 152 kts 274°
2026-04-20 11:48 58.19530 -136.58543 7004 ft 152 kts 274°
2026-04-20 11:49 58.19556 -136.60547 7004 ft 152 kts 274°
2026-04-20 11:49 58.19594 -136.63195 7014 ft 151 kts 275°
2026-04-20 11:49 58.19759 -136.64490 7012 ft 151 kts 295°
2026-04-20 11:49 58.20396 -136.66080 7014 ft 152 kts 310°
2026-04-20 11:50 58.21098 -136.67577 7016 ft 152 kts 309°
2026-04-20 11:50 58.21791 -136.69084 7017 ft 152 kts 309°
2026-04-20 11:50 58.22488 -136.70598 7017 ft 153 kts 309°
2026-04-20 11:50 58.23187 -136.72114 7016 ft 153 kts 309°
2026-04-20 11:51 58.23884 -136.73629 7015 ft 152 kts 309°
2026-04-20 11:51 58.24581 -136.75143 7015 ft 152 kts 309°
2026-04-20 11:51 58.25277 -136.76657 7014 ft 152 kts 309°
2026-04-20 11:51 58.25974 -136.78173 7013 ft 152 kts 309°
2026-04-20 11:52 58.26670 -136.79689 7013 ft 152 kts 309°
2026-04-20 11:52 58.27365 -136.81206 7012 ft 152 kts 309°
2026-04-20 11:52 58.28061 -136.82723 7012 ft 152 kts 309°
2026-04-20 11:52 58.28754 -136.84234 7014 ft 152 kts 309°
2026-04-20 11:53 58.29450 -136.85753 7013 ft 152 kts 309°
2026-04-20 11:53 58.30145 -136.87269 7013 ft 152 kts 309°
2026-04-20 11:53 58.30839 -136.88788 7012 ft 152 kts 309°
2026-04-20 11:53 58.31533 -136.90306 7011 ft 152 kts 309°
2026-04-20 11:54 58.32227 -136.91825 7011 ft 152 kts 309°
2026-04-20 11:54 58.32921 -136.93344 7010 ft 152 kts 309°
2026-04-20 11:54 58.33615 -136.94864 7011 ft 152 kts 309°
2026-04-20 11:54 58.34308 -136.96386 7011 ft 152 kts 308°
2026-04-20 11:55 58.35003 -136.97909 7002 ft 152 kts 308°
2026-04-20 11:55 58.35695 -136.99430 7004 ft 152 kts 308°
2026-04-20 11:55 58.36387 -137.00951 7003 ft 152 kts 308°
2026-04-20 11:55 58.37078 -137.02476 7004 ft 152 kts 310°
2026-04-20 11:56 58.37771 -137.03995 7003 ft 152 kts 310°
2026-04-20 11:56 58.38463 -137.05519 7003 ft 152 kts 310°
2026-04-20 11:56 58.39153 -137.07038 7002 ft 152 kts 310°
2026-04-20 11:56 58.39845 -137.08564 7007 ft 152 kts 310°
2026-04-20 11:57 58.40526 -137.10068 7007 ft 152 kts 310°
2026-04-20 11:57 58.41216 -137.11589 7001 ft 152 kts 310°
2026-04-20 11:57 58.41913 -137.13131 7000 ft 152 kts 310°
2026-04-20 11:57 58.42594 -137.14634 7000 ft 152 kts 310°
2026-04-20 11:58 58.43283 -137.16160 7002 ft 152 kts 310°
2026-04-20 11:58 58.43975 -137.17690 7002 ft 152 kts 310°
2026-04-20 11:58 58.44668 -137.19226 7002 ft 152 kts 310°
2026-04-20 11:58 58.45360 -137.20759 7001 ft 152 kts 310°
2026-04-20 11:59 58.46050 -137.22287 7001 ft 152 kts 310°
2026-04-20 11:59 58.46741 -137.23824 7001 ft 152 kts 310°
2026-04-20 11:59 58.47432 -137.25356 7001 ft 152 kts 310°
2026-04-20 11:59 58.48121 -137.26888 7001 ft 152 kts 310°
2026-04-20 12:00 58.48811 -137.28421 6999 ft 153 kts 310°
2026-04-20 12:00 58.49502 -137.29958 6997 ft 153 kts 310°
2026-04-20 12:00 58.50192 -137.31494 7003 ft 152 kts 310°
2026-04-20 12:00 58.50880 -137.33028 7001 ft 152 kts 310°
2026-04-20 12:01 58.51567 -137.34560 7002 ft 152 kts 310°
2026-04-20 12:01 58.52257 -137.36098 7003 ft 153 kts 310°
2026-04-20 12:01 58.52949 -137.37641 7000 ft 153 kts 310°
2026-04-20 12:01 58.53638 -137.39185 7007 ft 153 kts 310°
2026-04-20 12:02 58.54327 -137.40721 7005 ft 152 kts 310°
2026-04-20 12:02 58.55015 -137.42263 7006 ft 153 kts 310°
2026-04-20 12:02 58.55706 -137.43806 7006 ft 153 kts 310°
2026-04-20 12:02 58.56396 -137.45354 7007 ft 152 kts 310°
2026-04-20 12:03 58.57089 -137.46903 7005 ft 154 kts 309°
2026-04-20 12:03 58.57788 -137.48474 7005 ft 155 kts 309°
2026-04-20 12:03 58.58489 -137.50048 7005 ft 155 kts 309°
2026-04-20 12:03 58.59193 -137.51628 7004 ft 156 kts 310°
2026-04-20 12:04 58.59897 -137.53211 7005 ft 156 kts 309°
2026-04-20 12:04 58.60601 -137.54793 7004 ft 156 kts 309°
2026-04-20 12:04 58.61305 -137.56376 7002 ft 156 kts 310°
2026-04-20 12:04 58.62009 -137.57962 7007 ft 156 kts 309°
2026-04-20 12:05 58.62715 -137.59552 7005 ft 156 kts 309°
2026-04-20 12:05 58.63411 -137.61122 7004 ft 156 kts 309°
2026-04-20 12:05 58.64113 -137.62708 7003 ft 156 kts 309°
2026-04-20 12:05 58.64815 -137.64291 7011 ft 155 kts 309°
2026-04-20 12:06 58.65514 -137.65869 7010 ft 155 kts 309°
2026-04-20 12:06 58.66213 -137.67453 7010 ft 156 kts 309°
2026-04-20 12:06 58.66916 -137.69042 7009 ft 156 kts 309°
2026-04-20 12:06 58.67616 -137.70628 7009 ft 156 kts 309°
2026-04-20 12:07 58.68315 -137.72211 7009 ft 156 kts 309°
2026-04-20 12:07 58.69015 -137.73797 7008 ft 156 kts 309°
2026-04-20 12:07 58.69714 -137.75383 7009 ft 155 kts 309°
2026-04-20 12:07 58.70415 -137.76975 7009 ft 156 kts 309°
2026-04-20 12:08 58.71115 -137.78564 7008 ft 156 kts 309°
2026-04-20 12:08 58.71814 -137.80155 7010 ft 155 kts 309°
2026-04-20 12:08 58.72514 -137.81745 7017 ft 155 kts 309°
2026-04-20 12:08 58.73212 -137.83335 7016 ft 156 kts 309°
2026-04-20 12:09 58.73908 -137.84920 7017 ft 155 kts 309°
2026-04-20 12:09 58.74605 -137.86510 7017 ft 155 kts 309°
2026-04-20 12:09 58.75303 -137.88101 7016 ft 155 kts 309°
2026-04-20 12:09 58.75998 -137.89688 7017 ft 155 kts 309°
2026-04-20 12:10 58.76693 -137.91275 7017 ft 155 kts 309°
2026-04-20 12:10 58.77390 -137.92869 7016 ft 156 kts 309°
2026-04-20 12:10 58.78088 -137.94465 7017 ft 155 kts 309°
2026-04-20 12:10 58.78774 -137.96035 7019 ft 155 kts 309°
2026-04-20 12:11 58.79469 -137.97626 7019 ft 155 kts 309°
2026-04-20 12:11 58.80165 -137.99222 7027 ft 155 kts 309°
2026-04-20 12:11 58.80869 -138.00835 7026 ft 155 kts 309°
2026-04-20 12:11 58.81556 -138.02413 7026 ft 155 kts 309°
2026-04-20 12:12 58.82251 -138.04009 7025 ft 155 kts 309°
2026-04-20 12:12 58.82946 -138.05606 7025 ft 155 kts 309°
2026-04-20 12:12 58.83639 -138.07202 7024 ft 155 kts 309°
2026-04-20 12:12 58.84333 -138.08796 7027 ft 155 kts 309°
2026-04-20 12:13 58.85026 -138.10394 7026 ft 155 kts 309°
2026-04-20 12:13 58.85720 -138.11991 7026 ft 155 kts 309°
2026-04-20 12:13 58.86414 -138.13594 7025 ft 155 kts 309°
2026-04-20 12:13 58.87106 -138.15189 7025 ft 155 kts 309°
2026-04-20 12:14 58.87799 -138.16791 7024 ft 155 kts 309°
2026-04-20 12:14 58.88488 -138.18382 6919 ft 145 kts 309°
2026-04-20 12:14 58.89053 -138.19720 6609 ft 117 kts 308°
2026-04-20 12:14 58.89550 -138.20904 6180 ft 111 kts 309°
2026-04-20 12:15 58.90034 -138.22038 5754 ft 108 kts 309°
2026-04-20 12:15 58.90513 -138.23150 5342 ft 107 kts 310°
2026-04-20 12:15 58.90991 -138.24259 4950 ft 106 kts 311°
2026-04-20 12:15 58.91464 -138.25358 4544 ft 106 kts 311°
2026-04-20 12:16 58.91940 -138.26459 4142 ft 107 kts 311°
2026-04-20 12:16 58.92419 -138.27567 3745 ft 107 kts 311°
2026-04-20 12:16 58.92893 -138.28670 3358 ft 106 kts 311°
2026-04-20 12:16 58.93359 -138.29751 2964 ft 106 kts 311°
2026-04-20 12:17 58.93826 -138.30833 2576 ft 104 kts 310°
2026-04-20 12:17 58.94283 -138.31898 2179 ft 102 kts 310°
2026-04-20 12:17 58.94757 -138.32997 2050 ft 118 kts 310°
2026-04-20 12:17 58.95347 -138.34325 2050 ft 139 kts 310°
2026-04-20 12:18 58.95995 -138.35798 2039 ft 146 kts 309°
2026-04-20 12:18 58.96655 -138.37331 2038 ft 149 kts 309°
2026-04-20 12:18 58.97317 -138.38877 2037 ft 150 kts 309°
2026-04-20 12:18 58.97985 -138.40437 2035 ft 150 kts 309°
2026-04-20 12:19 58.98654 -138.42003 2034 ft 151 kts 309°
2026-04-20 12:19 58.99326 -138.43570 2034 ft 151 kts 309°
2026-04-20 12:19 58.99997 -138.45139 2036 ft 151 kts 309°
2026-04-20 12:19 59.00667 -138.46706 2033 ft 151 kts 309°
2026-04-20 12:20 59.01336 -138.48274 2035 ft 151 kts 309°
2026-04-20 12:20 59.02008 -138.49845 2033 ft 151 kts 309°
2026-04-20 12:20 59.02680 -138.51423 2033 ft 151 kts 309°
2026-04-20 12:20 59.03349 -138.52991 2036 ft 151 kts 309°
2026-04-20 12:21 59.04018 -138.54563 2035 ft 151 kts 309°
2026-04-20 12:21 59.04687 -138.56132 2034 ft 151 kts 309°
2026-04-20 12:21 59.05356 -138.57704 2034 ft 151 kts 309°
2026-04-20 12:21 59.06023 -138.59275 2030 ft 151 kts 309°
2026-04-20 12:22 59.06690 -138.60841 2029 ft 150 kts 309°
2026-04-20 12:22 59.07346 -138.62389 2029 ft 151 kts 309°
2026-04-20 12:22 59.08013 -138.63960 2027 ft 151 kts 309°
2026-04-20 12:22 59.08680 -138.65534 2030 ft 151 kts 309°
2026-04-20 12:23 59.09348 -138.67108 2030 ft 151 kts 309°
2026-04-20 12:23 59.10017 -138.68688 2030 ft 151 kts 309°
2026-04-20 12:23 59.10684 -138.70266 2030 ft 151 kts 309°
2026-04-20 12:23 59.11355 -138.71849 2029 ft 152 kts 309°
2026-04-20 12:24 59.12025 -138.73435 2028 ft 152 kts 309°
2026-04-20 12:24 59.12693 -138.75019 2029 ft 151 kts 308°
2026-04-20 12:24 59.13362 -138.76602 2027 ft 151 kts 308°
2026-04-20 12:24 59.14027 -138.78180 2024 ft 151 kts 308°
2026-04-20 12:25 59.14694 -138.79762 2022 ft 151 kts 308°
2026-04-20 12:25 59.15359 -138.81341 2019 ft 151 kts 308°
2026-04-20 12:25 59.16025 -138.82922 2021 ft 151 kts 308°
2026-04-20 12:25 59.16693 -138.84510 2021 ft 152 kts 308°
2026-04-20 12:26 59.17361 -138.86099 2022 ft 152 kts 308°
2026-04-20 12:26 59.18029 -138.87690 2020 ft 151 kts 308°
2026-04-20 12:26 59.18696 -138.89280 2021 ft 152 kts 308°
2026-04-20 12:26 59.19365 -138.90874 2020 ft 152 kts 308°
2026-04-20 12:27 59.20034 -138.92470 2020 ft 152 kts 308°
2026-04-20 12:27 59.20704 -138.94068 2023 ft 152 kts 308°
2026-04-20 12:27 59.21374 -138.95668 2023 ft 152 kts 308°
2026-04-20 12:27 59.22044 -138.97272 2020 ft 152 kts 308°
2026-04-20 12:28 59.22706 -138.98856 2020 ft 152 kts 308°
2026-04-20 12:28 59.23376 -139.00457 2019 ft 152 kts 308°
2026-04-20 12:28 59.24046 -139.02064 2021 ft 153 kts 308°
2026-04-20 12:28 59.24718 -139.03673 2024 ft 153 kts 308°
2026-04-20 12:29 59.25390 -139.05283 2023 ft 153 kts 308°
2026-04-20 12:29 59.26060 -139.06893 2023 ft 153 kts 308°
2026-04-20 12:29 59.26731 -139.08504 2023 ft 153 kts 308°
2026-04-20 12:29 59.27402 -139.10117 2019 ft 153 kts 308°
2026-04-20 12:30 59.28072 -139.11728 2018 ft 153 kts 308°
2026-04-20 12:30 59.28741 -139.13339 2020 ft 152 kts 308°
2026-04-20 12:30 59.29408 -139.14947 2019 ft 152 kts 308°
2026-04-20 12:30 59.30075 -139.16553 2019 ft 152 kts 308°
2026-04-20 12:31 59.30743 -139.18163 2019 ft 152 kts 308°
2026-04-20 12:31 59.31411 -139.19777 2019 ft 153 kts 308°
2026-04-20 12:31 59.32081 -139.21393 2018 ft 152 kts 308°
2026-04-20 12:31 59.32749 -139.23009 2016 ft 153 kts 308°
2026-04-20 12:32 59.33417 -139.24626 2016 ft 153 kts 308°
2026-04-20 12:32 59.34087 -139.26245 2017 ft 153 kts 308°
2026-04-20 12:32 59.34755 -139.27864 2021 ft 153 kts 307°
2026-04-20 12:32 59.35426 -139.29488 2024 ft 154 kts 307°
2026-04-20 12:33 59.36098 -139.31118 2023 ft 153 kts 307°
2026-04-20 12:33 59.36767 -139.32744 2022 ft 153 kts 307°
2026-04-20 12:33 59.37434 -139.34364 2020 ft 153 kts 307°
2026-04-20 12:33 59.38101 -139.35984 2018 ft 152 kts 307°
2026-04-20 12:34 59.38540 -139.37050 2019 ft 152 kts 307°
2026-04-20 12:34 59.39206 -139.38672 2018 ft 152 kts 307°
2026-04-20 12:34 59.39869 -139.40285 2019 ft 152 kts 307°
2026-04-20 12:34 59.40534 -139.41906 2018 ft 152 kts 307°
2026-04-20 12:35 59.41197 -139.43524 2021 ft 152 kts 307°
2026-04-20 12:35 59.41862 -139.45146 2020 ft 152 kts 307°
2026-04-20 12:35 59.42527 -139.46769 2021 ft 152 kts 307°
2026-04-20 12:35 59.43193 -139.48395 2017 ft 153 kts 307°
2026-04-20 12:36 59.43858 -139.50021 2017 ft 153 kts 307°
2026-04-20 12:36 59.44513 -139.51625 2017 ft 140 kts 306°
2026-04-20 12:36 59.45042 -139.52942 2004 ft 104 kts 306°
2026-04-20 12:36 59.45418 -139.53966 1881 ft 88 kts 300°
2026-04-20 12:37 59.45701 -139.55029 1665 ft 86 kts 295°
2026-04-20 12:37 59.45956 -139.56059 1460 ft 85 kts 294°
2026-04-20 12:37 59.46277 -139.57043 1228 ft 86 kts 306°
2026-04-20 12:37 59.46688 -139.57882 1032 ft 84 kts 313°
2026-04-20 12:38 59.47102 -139.58650 893 ft 80 kts 313°
2026-04-20 12:38 59.47504 -139.59419 769 ft 82 kts 313°
2026-04-20 12:38 59.47875 -139.60161 676 ft 73 kts 312°
2026-04-20 12:38 59.48240 -139.60879 538 ft 75 kts 314°
2026-04-20 12:39 59.48987 -139.62327 300 ft 76 kts 317°
2026-04-20 12:39 59.49352 -139.63004 170 ft 67 kts 317°
2026-04-20 12:39 59.49681 -139.63647 95 ft 64 kts 316°
2026-04-20 12:40 59.49970 -139.64209 53 ft 53 kts 315°
2026-04-20 12:40 59.50212 -139.64684 52 ft 47 kts 314°
2026-04-20 12:40 59.50447 -139.65146 52 ft 51 kts 315°
2026-04-20 12:40 59.50691 -139.65635 52 ft 45 kts 314°
2026-04-20 12:41 59.50855 -139.65965 47 ft 34 kts 314°
2026-04-20 12:41 59.50973 -139.66285 47 ft 22 kts 229°
2026-04-20 12:41 59.50919 -139.66504 48 ft 22 kts 306°
2026-04-20 12:41 59.50975 -139.66552 48 ft 0 kts 46°